.
WxDataArchive / Data Records for 2007-12-24
2007-12-23 December 2007 2007-12-25

Data Records for Monday, 24 December 2007

Time	Temp	Chill	HIndex	Humid	Dewpt	 Wind 	HiWind	WindDir	Rain 	Barom 
-----	----	-----	------	-----	-----	------	------	-------	-----	----- 
00:00	24.5	15.0	24.5	62	13.4	9	23	270	0.00	29.820 
00:05	24.4	14.3	24.4	61	12.9	10	23	270	0.00	29.819 
00:10	24.4	14.3	24.4	62	13.3	10	26	270	0.00	29.818 
00:15	24.2	14.7	24.2	62	13.1	9	22	270	0.00	29.820 
00:20	24.2	15.3	24.2	63	13.4	8	20	270	0.00	29.819 
00:25	24.2	16.1	24.2	63	13.4	7	24	270	0.00	29.821 
00:30	24.4	15.6	24.4	63	13.6	8	17	270	0.00	29.817 
00:35	24.4	15.6	24.4	64	14.0	8	19	270	0.00	29.823 
00:40	24.4	16.3	24.4	64	14.0	7	20	270	0.00	29.823 
00:45	24.4	17.2	24.4	64	14.0	6	14	270	0.00	29.822 
00:50	24.4	16.3	24.4	64	14.0	7	19	270	0.00	29.822 
00:55	24.4	14.9	24.4	64	14.0	9	19	270	0.00	29.826 
01:00	24.4	14.9	24.4	64	14.0	9	18	248	0.00	29.824 
01:05	24.4	17.2	24.4	64	14.0	6	14	270	0.00	29.824 
01:10	24.4	15.6	24.4	64	14.0	8	19	270	0.00	29.821 
01:15	24.5	15.7	24.5	65	14.4	8	22	270	0.00	29.819 
01:20	24.5	17.3	24.5	65	14.4	6	18	270	0.00	29.822 
01:25	24.5	18.3	24.5	65	14.4	5	18	270	0.00	29.825 
01:30	24.5	18.3	24.5	65	14.4	5	16	270	0.00	29.822 
01:35	24.7	16.0	24.7	65	14.6	8	19	248	0.00	29.823 
01:40	24.7	14.7	24.7	65	14.6	10	21	248	0.00	29.823 
01:45	24.7	15.3	24.7	65	14.6	9	27	248	0.00	29.823 
01:50	24.7	16.7	24.7	65	14.6	7	21	270	0.00	29.824 
01:55	24.7	16.7	24.7	66	15.0	7	21	270	0.00	29.826 
02:00	24.7	17.5	24.7	66	15.0	6	14	270	0.00	29.830 
02:05	24.5	17.3	24.5	66	14.8	6	17	270	0.00	29.825 
02:10	24.5	16.5	24.5	66	14.8	7	16	270	0.00	29.830 
02:15	24.5	17.3	24.5	66	14.8	6	17	270	0.00	29.832 
02:20	24.5	15.7	24.5	65	14.4	8	24	270	0.00	29.836 
02:25	24.5	15.7	24.5	66	14.8	8	18	270	0.00	29.839 
02:30	24.5	18.3	24.5	67	15.1	5	14	270	0.00	29.841 
02:35	24.7	18.5	24.7	67	15.3	5	14	270	0.00	29.846 
02:40	24.7	17.5	24.7	67	15.3	6	21	270	0.00	29.845 
02:45	24.7	16.0	24.7	67	15.3	8	24	270	0.00	29.849 
02:50	24.7	17.5	24.7	68	15.7	6	15	270	0.00	29.854 
02:55	24.7	17.5	24.7	67	15.3	6	14	270	0.00	29.855 
03:00	24.7	18.5	24.7	67	15.3	5	12	270	0.00	29.855 
03:05	24.7	16.0	24.7	67	15.3	8	22	270	0.00	29.856 
03:10	24.7	16.0	24.7	67	15.3	8	18	270	0.00	29.856 
03:15	24.7	16.7	24.7	68	15.7	7	16	270	0.00	29.858 
03:20	24.5	15.7	24.5	68	15.5	8	18	270	0.00	29.858 
03:25	24.5	17.3	24.5	68	15.5	6	14	270	0.00	29.857 
03:30	24.4	15.6	24.4	68	15.4	8	17	270	0.00	29.860 
03:35	24.2	16.9	24.2	69	15.5	6	13	270	0.00	29.863 
03:40	24.2	16.9	24.2	69	15.5	6	14	270	0.00	29.867 
03:45	24.1	16.0	24.1	69	15.4	7	19	270	0.00	29.863 
03:50	23.9	15.0	23.9	69	15.2	8	19	270	0.00	29.860 
03:55	23.8	14.9	23.8	69	15.1	8	21	270	0.00	29.867 
04:00	23.8	17.4	23.8	69	15.1	5	17	270	0.00	29.864 
04:05	23.8	17.4	23.8	70	15.5	5	14	270	0.00	29.866 
04:10	23.8	15.6	23.8	70	15.5	7	19	270	0.00	29.868 
04:15	23.8	14.2	23.8	69	15.1	9	25	270	0.00	29.868 
04:20	23.8	16.5	23.8	70	15.5	6	14	270	0.00	29.870 
04:25	23.8	16.5	23.8	70	15.5	6	18	270	0.00	29.871 
04:30	23.8	15.6	23.8	70	15.5	7	17	270	0.00	29.871 
04:35	23.8	15.6	23.8	71	15.8	7	17	270	0.00	29.870 
04:40	23.8	17.4	23.8	71	15.8	5	16	270	0.00	29.870 
04:45	23.8	15.6	23.8	71	15.8	7	16	270	0.00	29.867 
04:50	23.8	16.5	23.8	72	16.1	6	18	270	0.00	29.872 
04:55	23.8	14.9	23.8	72	16.1	8	23	270	0.00	29.871 
05:00	23.8	16.5	23.8	72	16.1	6	14	270	0.00	29.874 
05:05	23.9	17.6	23.9	72	16.2	5	11	270	0.00	29.877 
05:10	23.9	16.6	23.9	72	16.2	6	19	270	0.00	29.879 
05:15	23.9	15.7	23.9	72	16.2	7	15	270	0.00	29.881 
05:20	24.1	16.8	24.1	72	16.4	6	16	270	0.00	29.887 
05:25	24.1	19.0	24.1	73	16.7	4	10	270	0.00	29.888 
05:30	24.1	16.0	24.1	73	16.7	7	16	270	0.00	29.889 
05:35	23.9	15.7	23.9	73	16.5	7	14	270	0.00	29.889 
05:40	23.9	15.7	23.9	73	16.5	7	16	270	0.00	29.890 
05:45	23.9	16.6	23.9	73	16.5	6	16	270	0.00	29.892 
05:50	24.1	16.8	24.1	73	16.7	6	14	270	0.00	29.895 
05:55	24.1	16.8	24.1	73	16.7	6	13	270	0.00	29.891 
06:00	24.1	17.8	24.1	73	16.7	5	13	270	0.00	29.897 
06:05	24.1	17.8	24.1	73	16.7	5	13	270	0.00	29.897 
06:10	24.1	24.1	24.1	74	17.0	3	11	248	0.00	29.898 
06:15	24.1	17.8	24.1	73	16.7	5	14	270	0.00	29.903 
06:20	24.1	16.8	24.1	73	16.7	6	17	270	0.00	29.903 
06:25	24.1	17.8	24.1	73	16.7	5	14	270	0.00	29.905 
06:30	24.1	17.8	24.1	73	16.7	5	13	270	0.00	29.908 
06:35	24.1	17.8	24.1	73	16.7	5	16	270	0.00	29.915 
06:40	24.1	17.8	24.1	73	16.7	5	14	270	0.00	29.918 
06:45	24.1	16.8	24.1	73	16.7	6	14	270	0.00	29.919 
06:50	24.1	19.0	24.1	73	16.7	4	13	270	0.00	29.921 
06:55	24.1	19.0	24.1	73	16.7	4	10	270	0.00	29.923 
07:00	24.2	19.1	24.2	73	16.8	4	13	270	0.00	29.930 
07:05	24.2	24.2	24.2	73	16.8	3	9	248	0.00	29.936 
07:10	24.2	19.1	24.2	73	16.8	4	12	270	0.00	29.937 
07:15	24.2	19.1	24.2	73	16.8	4	12	270	0.00	29.938 
07:20	24.4	19.3	24.4	73	17.0	4	12	270	0.00	29.941 
07:25	24.4	19.3	24.4	73	17.0	4	9	270	0.00	29.942 
07:30	24.4	24.4	24.4	74	17.3	3	10	248	0.00	29.944 
07:35	24.4	24.4	24.4	74	17.3	3	9	270	0.00	29.949 
07:40	24.4	18.1	24.4	74	17.3	5	12	270	0.00	29.952 
07:45	24.4	19.3	24.4	74	17.3	4	17	270	0.00	29.952 
07:50	24.4	24.4	24.4	73	17.0	3	12	270	0.00	29.954 
07:55	24.5	19.4	24.5	73	17.1	4	12	270	0.00	29.957 
08:00	24.5	24.5	24.5	73	17.1	3	11	248	0.00	29.961 
08:05	24.5	18.3	24.5	73	17.1	5	12	270	0.00	29.965 
08:10	24.5	24.5	24.5	73	17.1	3	7	270	0.00	29.966 
08:15	24.5	24.5	24.5	73	17.1	3	9	270	0.00	29.969 
08:20	24.7	24.7	24.7	73	17.3	3	9	248	0.00	29.969 
08:25	24.7	19.6	24.7	73	17.3	4	11	270	0.00	29.970 
08:30	24.7	24.7	24.7	73	17.3	3	10	270	0.00	29.975 
08:35	24.7	19.6	24.7	74	17.6	4	10	270	0.00	29.975 
08:40	24.7	24.7	24.7	74	17.6	3	11	270	0.00	29.978 
08:45	24.8	19.8	24.8	73	17.4	4	16	270	0.00	29.981 
08:50	24.8	19.8	24.8	74	17.7	4	13	270	0.00	29.982 
08:55	24.8	24.8	24.8	74	17.7	3	9	248	0.00	29.987 
09:00	24.8	19.8	24.8	74	17.7	4	17	270	0.00	29.990 
09:05	24.8	24.8	24.8	74	17.7	3	8	270	0.00	29.989 
09:10	24.8	24.8	24.8	75	18.0	3	12	270	0.00	29.992 
09:15	24.8	18.6	24.8	74	17.7	5	12	270	0.00	29.996 
09:20	25.0	20.0	25.0	75	18.2	4	15	270	0.00	29.998 
09:25	25.0	20.0	25.0	75	18.2	4	13	248	0.00	30.000 
09:30	25.0	25.0	25.0	75	18.2	3	12	270	0.00	30.004 
09:35	25.0	25.0	25.0	76	18.5	3	12	270	0.00	30.007 
09:40	25.1	25.1	25.1	76	18.6	2	9	248	0.00	30.010 
09:45	25.1	25.1	25.1	76	18.6	3	15	248	0.00	30.009 
09:50	25.1	25.1	25.1	77	18.9	2	9	248	0.00	30.009 
09:55	25.3	25.3	25.3	77	19.1	3	14	270	0.00	30.012 
10:00	25.3	20.3	25.3	76	18.8	4	11	248	0.00	30.013 
10:05	25.3	25.3	25.3	77	19.1	3	11	270	0.00	30.012 
10:10	25.4	25.4	25.4	77	19.2	3	10	248	0.00	30.016 
10:15	25.4	25.4	25.4	77	19.2	3	9	248	0.00	30.018 
10:20	25.4	25.4	25.4	77	19.2	3	9	270	0.00	30.020 
10:25	25.6	20.7	25.6	77	19.4	4	13	270	0.00	30.026 
10:30	25.6	20.7	25.6	77	19.4	4	11	248	0.00	30.026 
10:35	25.6	19.6	25.6	77	19.4	5	14	270	0.00	30.027 
10:40	25.7	25.7	25.7	77	19.5	2	5	248	0.00	30.028 
10:45	25.8	25.8	25.8	77	19.6	3	7	248	0.00	30.028 
10:50	25.8	25.8	25.8	77	19.6	3	7	248	0.00	30.031 
10:55	26.0	26.0	26.0	77	19.8	2	10	248	0.00	30.031 
11:00	26.0	26.0	26.0	76	19.5	3	11	248	0.00	30.033 
11:05	26.0	20.0	26.0	76	19.5	5	10	248	0.00	30.032 
11:10	26.1	20.1	26.1	76	19.6	5	13	248	0.00	30.032 
11:15	26.1	26.1	26.1	76	19.6	3	11	248	0.00	30.029 
11:20	26.3	26.3	26.3	76	19.8	3	8	248	0.00	30.027 
11:25	26.3	21.5	26.3	75	19.5	4	14	270	0.00	30.027 
11:30	26.3	26.3	26.3	76	19.8	2	8	248	0.00	30.026 
11:35	26.4	26.4	26.4	76	19.9	2	5	248	0.00	30.026 
11:40	26.4	21.6	26.4	76	19.9	4	11	270	0.00	30.026 
11:45	26.6	20.7	26.6	76	20.1	5	12	270	0.00	30.024 
11:50	26.6	21.8	26.6	76	20.1	4	13	248	0.00	30.024 
11:55	26.6	21.8	26.6	76	20.1	4	16	270	0.00	30.023 
12:00	26.7	26.7	26.7	76	20.2	2	6	270	0.00	30.021 
12:05	26.7	26.7	26.7	76	20.2	3	10	270	0.00	30.021 
12:10	26.7	26.7	26.7	76	20.2	3	7	248	0.00	30.018 
12:15	26.7	26.7	26.7	76	20.2	3	10	248	0.00	30.025 
12:20	26.7	20.9	26.7	76	20.2	5	13	270	0.00	30.025 
12:25	26.7	26.7	26.7	76	20.2	3	10	248	0.00	30.019 
12:30	26.9	21.1	26.9	76	20.4	5	13	270	0.00	30.015 
12:35	26.9	26.9	26.9	76	20.4	3	9	248	0.00	30.020 
12:40	26.9	21.1	26.9	76	20.4	5	13	248	0.00	30.019 
12:45	27.0	22.3	27.0	76	20.5	4	10	248	0.00	30.014 
12:50	27.0	27.0	27.0	76	20.5	3	9	270	0.00	30.012 
12:55	27.2	22.5	27.2	76	20.7	4	11	270	0.00	30.014 
13:00	27.2	21.4	27.2	76	20.7	5	12	270	0.00	30.017 
13:05	27.3	27.3	27.3	76	20.8	3	9	248	0.00	30.016 
13:10	27.3	22.6	27.3	76	20.8	4	11	270	0.00	30.012 
13:15	27.3	27.3	27.3	76	20.8	3	12	270	0.00	30.009 
13:20	27.5	27.5	27.5	76	20.9	3	10	270	0.00	30.012 
13:25	27.5	22.9	27.5	76	20.9	4	13	248	0.00	30.013 
13:30	27.6	27.6	27.6	77	21.4	2	7	248	0.00	30.014 
13:35	27.6	27.6	27.6	76	21.0	3	7	248	0.00	30.017 
13:40	27.6	27.6	27.6	77	21.4	3	10	248	0.00	30.018 
13:45	27.6	23.0	27.6	77	21.4	4	7	270	0.00	30.019 
13:50	27.6	27.6	27.6	77	21.4	3	9	270	0.00	30.020 
13:55	27.6	21.9	27.6	77	21.4	5	15	270	0.00	30.019 
14:00	27.6	23.0	27.6	77	21.4	4	11	248	0.00	30.015 
14:05	27.6	27.6	27.6	77	21.4	3	10	248	0.00	30.015 
14:10	27.8	27.8	27.8	77	21.5	2	7	270	0.00	30.017 
14:15	27.9	27.9	27.9	77	21.6	2	7	248	0.00	30.018 
14:20	27.9	27.9	27.9	77	21.6	3	10	270	0.00	30.019 
14:25	27.8	27.8	27.8	77	21.5	3	6	270	0.00	30.019 
14:30	27.8	23.2	27.8	77	21.5	4	11	248	0.00	30.021 
14:35	27.8	23.2	27.8	77	21.5	4	12	248	0.00	30.022 
14:40	27.8	27.8	27.8	77	21.5	3	10	248	0.00	30.024 
14:45	27.8	23.2	27.8	77	21.5	4	10	248	0.00	30.025 
14:50	27.8	27.8	27.8	77	21.5	3	10	270	0.00	30.025 
14:55	27.8	27.8	27.8	76	21.2	3	13	248	0.00	30.028 
15:00	27.9	27.9	27.9	76	21.3	3	7	248	0.00	30.030 
15:05	27.9	27.9	27.9	75	21.0	2	9	248	0.00	30.030 
15:10	28.1	23.6	28.1	75	21.2	4	15	248	0.00	30.030 
15:15	28.1	23.6	28.1	74	20.9	4	11	248	0.00	30.039 
15:20	28.2	28.2	28.2	74	21.0	3	11	270	0.00	30.039 
15:25	28.2	28.2	28.2	74	21.0	3	7	270	0.00	30.041 
15:30	28.4	28.4	28.4	74	21.2	3	11	248	0.00	30.041 
15:35	28.4	28.4	28.4	74	21.2	3	10	270	0.00	30.041 
15:40	28.2	28.2	28.2	74	21.0	3	7	248	0.00	30.043 
15:45	28.4	28.4	28.4	74	21.2	2	7	248	0.00	30.043 
15:50	28.4	28.4	28.4	74	21.2	2	7	248	0.00	30.043 
15:55	28.4	28.4	28.4	74	21.2	3	11	248	0.00	30.046 
16:00	28.4	28.4	28.4	74	21.2	2	7	248	0.00	30.052 
16:05	28.4	28.4	28.4	75	21.5	3	7	248	0.00	30.052 
16:10	28.4	28.4	28.4	75	21.5	3	6	248	0.00	30.052 
16:15	28.5	23.0	28.5	75	21.6	5	13	270	0.00	30.056 
16:20	28.5	28.5	28.5	75	21.6	2	5	248	0.00	30.056 
16:25	28.5	28.5	28.5	75	21.6	2	9	248	0.00	30.057 
16:30	28.7	28.7	28.7	75	21.8	3	9	248	0.00	30.059 
16:35	28.7	28.7	28.7	75	21.8	2	6	248	0.00	30.067 
16:40	28.7	28.7	28.7	75	21.8	2	5	248	0.00	30.068 
16:45	28.8	28.8	28.8	75	21.9	1	4	270	0.00	30.071 
16:50	28.8	24.4	28.8	75	21.9	4	10	248	0.00	30.072 
16:55	28.8	24.4	28.8	75	21.9	4	10	270	0.00	30.073 
17:00	28.8	28.8	28.8	75	21.9	3	6	270	0.00	30.072 
17:05	28.8	28.8	28.8	75	21.9	3	6	248	0.00	30.072 
17:10	28.8	28.8	28.8	75	21.9	2	4	248	0.00	30.073 
17:15	28.8	28.8	28.8	75	21.9	3	9	248	0.00	30.073 
17:20	28.8	24.4	28.8	75	21.9	4	12	248	0.00	30.075 
17:25	28.8	24.4	28.8	75	21.9	4	11	248	0.00	30.074 
17:30	28.8	28.8	28.8	75	21.9	2	6	248	0.00	30.075 
17:35	28.8	28.8	28.8	75	21.9	2	9	248	0.00	30.076 
17:40	28.8	28.8	28.8	76	22.2	2	4	248	0.00	30.083 
17:45	28.8	28.8	28.8	76	22.2	3	9	248	0.00	30.084 
17:50	28.8	28.8	28.8	75	21.9	3	9	248	0.00	30.083 
17:55	28.8	28.8	28.8	75	21.9	3	7	248	0.00	30.084 
18:00	28.8	28.8	28.8	76	22.2	3	11	248	0.00	30.086 
18:05	28.8	23.3	28.8	75	21.9	5	11	248	0.00	30.086 
18:10	28.8	28.8	28.8	76	22.2	3	7	248	0.00	30.086 
18:15	28.8	28.8	28.8	76	22.2	3	7	270	0.00	30.088 
18:20	28.8	24.4	28.8	76	22.2	4	12	248	0.00	30.088 
18:25	28.8	28.8	28.8	76	22.2	3	9	248	0.00	30.088 
18:30	28.8	28.8	28.8	76	22.2	2	7	248	0.00	30.090 
18:35	28.8	28.8	28.8	76	22.2	1	6	248	0.00	30.090 
18:40	28.7	28.7	28.7	77	22.4	3	7	270	0.00	30.090 
18:45	28.7	28.7	28.7	77	22.4	3	9	248	0.00	30.094 
18:50	28.7	28.7	28.7	77	22.4	2	9	248	0.00	30.094 
18:55	28.7	28.7	28.7	77	22.4	2	10	270	0.00	30.094 
19:00	28.7	28.7	28.7	77	22.4	3	7	248	0.00	30.102 
19:05	28.7	28.7	28.7	77	22.4	2	5	248	0.00	30.102 
19:10	28.7	28.7	28.7	77	22.4	2	6	248	0.00	30.102 
19:15	28.7	28.7	28.7	77	22.4	3	8	248	0.00	30.100 
19:20	28.7	28.7	28.7	77	22.4	3	10	248	0.00	30.100 
19:25	28.5	24.0	28.5	77	22.2	4	12	248	0.00	30.100 
19:30	28.5	28.5	28.5	77	22.2	2	7	248	0.00	30.104 
19:35	28.5	28.5	28.5	77	22.2	3	10	248	0.00	30.104 
19:40	28.5	28.5	28.5	77	22.2	3	7	248	0.00	30.104 
19:45	28.5	28.5	28.5	77	22.2	3	6	248	0.00	30.108 
19:50	28.5	28.5	28.5	77	22.2	3	9	248	0.00	30.110 
19:55	28.5	28.5	28.5	77	22.2	3	7	248	0.00	30.113 
20:00	28.5	28.5	28.5	77	22.2	2	7	248	0.00	30.111 
20:05	28.5	28.5	28.5	77	22.2	2	5	248	0.00	30.109 
20:10	28.5	28.5	28.5	78	22.5	2	7	248	0.00	30.106 
20:15	28.5	28.5	28.5	78	22.5	1	4	248	0.00	30.106 
20:20	28.5	28.5	28.5	78	22.5	2	11	248	0.00	30.111 
20:25	28.5	28.5	28.5	78	22.5	2	10	292	0.00	30.111 
20:30	28.4	28.4	28.4	79	22.7	2	6	248	0.00	30.116 
20:35	28.4	28.4	28.4	79	22.7	2	10	270	0.00	30.117 
20:40	28.4	28.4	28.4	79	22.7	2	11	248	0.00	30.119 
20:45	28.4	28.4	28.4	79	22.7	2	9	270	0.00	30.118 
20:50	28.4	28.4	28.4	79	22.7	2	6	248	0.00	30.117 
20:55	28.4	28.4	28.4	79	22.7	2	5	270	0.00	30.117 
21:00	28.4	28.4	28.4	79	22.7	1	4	270	0.00	30.119 
21:05	28.4	28.4	28.4	79	22.7	2	6	248	0.00	30.119 
21:10	28.4	28.4	28.4	79	22.7	2	6	270	0.00	30.120 
21:15	28.5	28.5	28.5	79	22.8	2	7	270	0.00	30.119 
21:20	28.5	28.5	28.5	79	22.8	2	5	248	0.00	30.121 
21:25	28.5	28.5	28.5	79	22.8	2	6	248	0.00	30.124 
21:30	28.5	28.5	28.5	79	22.8	2	6	270	0.00	30.127 
21:35	28.5	28.5	28.5	79	22.8	2	5	292	0.00	30.130 
21:40	28.5	28.5	28.5	79	22.8	2	6	248	0.00	30.130 
21:45	28.5	28.5	28.5	79	22.8	2	5	270	0.00	30.131 
21:50	28.5	28.5	28.5	79	22.8	2	4	248	0.00	30.132 
21:55	28.5	28.5	28.5	79	22.8	2	4	270	0.00	30.134 
22:00	28.5	28.5	28.5	79	22.8	2	6	270	0.00	30.133 
22:05	28.5	28.5	28.5	79	22.8	2	4	292	0.00	30.134 
22:10	28.5	28.5	28.5	79	22.8	3	9	270	0.00	30.132 
22:15	28.5	28.5	28.5	78	22.5	3	10	248	0.00	30.132 
22:20	28.5	28.5	28.5	79	22.8	1	4	248	0.00	30.131 
22:25	28.4	28.4	28.4	79	22.7	1	3	248	0.00	30.127 
22:30	28.4	28.4	28.4	79	22.7	2	7	248	0.00	30.128 
22:35	28.4	28.4	28.4	78	22.4	3	5	270	0.00	30.129 
22:40	28.4	28.4	28.4	79	22.7	2	5	248	0.00	30.130 
22:45	28.4	28.4	28.4	79	22.7	2	5	270	0.00	30.130 
22:50	28.2	28.2	28.2	78	22.2	1	6	248	0.00	30.132 
22:55	28.2	28.2	28.2	78	22.2	1	4	270	0.00	30.133 
23:00	28.2	28.2	28.2	77	21.9	1	4	248	0.00	30.132 
23:05	28.1	28.1	28.1	76	21.5	2	7	248	0.00	30.132 
23:10	28.1	28.1	28.1	76	21.5	2	6	270	0.00	30.128 
23:15	28.1	28.1	28.1	76	21.5	1	3	248	0.00	30.132 
23:20	28.1	28.1	28.1	76	21.5	1	4	270	0.00	30.133 
23:25	28.1	28.1	28.1	76	21.5	1	3	248	0.00	30.134 
23:30	28.1	28.1	28.1	76	21.5	1	4	248	0.00	30.133 
23:35	27.9	27.9	27.9	77	21.6	1	4	248	0.00	30.133 
23:40	27.9	27.9	27.9	77	21.6	0	4	248	0.00	30.136 
23:45	27.9	27.9	27.9	77	21.6	1	4	248	0.00	30.134 
23:50	27.9	27.9	27.9	77	21.6	1	3	248	0.00	30.133 
23:55	27.9	27.9	27.9	76	21.3	2	6	248	0.00	30.134 

CoCoRaHS
IN-AL-39
A2 Web Hosting
Creative Commons License
GoDaddy
Look for:

loaded 2017-10-16 20:26:30 • last modified 2010-11-18 10:43:29
Privacy PolicyDisclaimer
• wx.awcolley.com is powered by PmWiki v.2002016 •
• all content (unless otherwise noted) © 2017 A W Colley